Terminal Aerodrome Forecast
Issued by NWS

Home | Current Version | Previous Version | Text Only | Print | Product List | Glossary On
Versions: 1 2 3 4 5 6 7 8 9 10 11 12 13 14 15 16 17 18 19 20 21 22 23 24 25
000
FTUS44 KOUN 042327
TAFGAG
TAF
KGAG 042327Z 0500/0524 17017G25KT P6SM BKN250
     FM050200 16013KT P6SM BKN250
     FM050500 16014KT P6SM BKN050
      TEMPO 0506/0510 3SM -TSRA BKN020CB
     FM051000 16016KT P6SM OVC020 PROB30 0510/0516 3SM -TSRA
      BKN015CB
     FM051800 16020G30KT P6SM OVC015=

USA.gov is the U.S. government's official web portal to all federal, state and local government web resources and services.